createdAt,value
2022-08-22T00:00:19.433Z,2.22
2022-08-22T00:02:42.143Z,1.98
2022-08-22T00:02:47.240Z,1.80
2022-08-22T00:03:01.118Z,2.40
2022-08-22T00:03:10.645Z,1.80
2022-08-22T00:03:17.634Z,2.10
2022-08-22T00:06:01.934Z,2.00
2022-08-22T00:08:38.992Z,2.10
2022-08-22T00:11:15.944Z,2.08
2022-08-22T00:13:54.843Z,2.33
2022-08-22T00:16:34.794Z,1.80
2022-08-22T00:19:13.232Z,1.73
2022-08-22T00:21:52.417Z,2.10
2022-08-22T00:24:26.805Z,1.95
2022-08-22T00:27:00.234Z,2.10
2022-08-22T00:29:34.707Z,2.17
2022-08-22T00:32:11.761Z,2.10
2022-08-22T00:34:47.608Z,2.35
2022-08-22T00:37:24.255Z,2.03
2022-08-22T00:39:59.819Z,2.50
2022-08-22T00:42:57.530Z,2.30
2022-08-22T00:45:58.178Z,2.65
2022-08-22T00:48:44.292Z,2.33
2022-08-22T00:51:45.595Z,2.53
2022-08-22T00:54:29.968Z,2.42
2022-08-22T00:57:19.386Z,2.63
2022-08-22T01:00:05.554Z,2.45
2022-08-22T01:02:57.684Z,2.30
2022-08-22T01:05:45.907Z,2.30
2022-08-22T01:08:31.608Z,2.60
2022-08-22T01:11:18.716Z,2.42
2022-08-22T01:14:03.948Z,2.38
2022-08-22T01:16:54.723Z,1.98
2022-08-22T01:20:00.404Z,2.35
2022-08-22T01:23:03.188Z,2.00
2022-08-22T01:26:02.943Z,2.17
2022-08-22T01:29:03.840Z,2.03
2022-08-22T01:32:04.435Z,2.00
2022-08-22T01:35:10.912Z,2.20
2022-08-22T01:38:12.776Z,2.30
2022-08-22T01:41:27.875Z,2.30
2022-08-22T01:44:13.616Z,2.40
2022-08-22T01:46:59.594Z,2.30
2022-08-22T01:49:35.765Z,2.33
2022-08-22T01:52:10.726Z,2.53
2022-08-22T01:54:49.974Z,2.50
2022-08-22T01:57:19.300Z,2.40
2022-08-22T01:59:49.992Z,2.28
2022-08-22T02:02:34.852Z,2.63
2022-08-22T02:05:11.059Z,2.97
2022-08-22T02:07:49.160Z,2.70
2022-08-22T02:10:23.771Z,3.03
2022-08-22T02:13:04.916Z,2.73
2022-08-22T02:15:45.089Z,3.00
2022-08-22T02:18:21.553Z,2.85
2022-08-22T02:21:03.786Z,2.75
2022-08-22T02:23:45.624Z,3.50
2022-08-22T02:26:18.203Z,2.70
2022-08-22T02:28:57.875Z,2.55
2022-08-22T02:31:38.603Z,2.80
2022-08-22T02:34:25.918Z,2.28
2022-08-22T02:37:03.684Z,2.38
2022-08-22T02:39:39.242Z,2.50
2022-08-22T02:42:21.379Z,2.53
2022-08-22T02:44:59.047Z,3.17
2022-08-22T02:47:34.186Z,2.53
2022-08-22T02:50:13.150Z,2.83
2022-08-22T02:52:53.908Z,3.00
2022-08-22T02:55:36.739Z,3.10
2022-08-22T02:58:10.615Z,3.05
2022-08-22T03:00:49.205Z,3.00
2022-08-22T03:03:22.201Z,3.60
2022-08-22T03:06:01.103Z,3.65
2022-08-22T03:08:32.810Z,3.88
2022-08-22T03:11:14.608Z,3.63
2022-08-22T03:13:54.940Z,5.70
2022-08-22T03:16:33.854Z,5.72
2022-08-22T03:19:07.567Z,4.20
2022-08-22T03:21:46.773Z,3.50
2022-08-22T03:24:22.187Z,3.60
2022-08-22T03:26:57.664Z,3.17
2022-08-22T03:32:12.453Z,2.97
2022-08-22T03:34:56.508Z,3.50
2022-08-22T03:37:33.694Z,3.03
2022-08-22T03:40:08.158Z,3.10
2022-08-22T03:43:14.644Z,2.60
2022-08-22T03:46:24.727Z,2.58
2022-08-22T03:49:16.015Z,2.60
2022-08-22T03:52:11.020Z,2.55
2022-08-22T03:55:14.594Z,2.70
2022-08-22T03:58:05.019Z,2.58
2022-08-22T04:01:00.205Z,2.40
2022-08-22T04:04:18.836Z,2.67
2022-08-22T04:07:17.771Z,2.65
2022-08-22T04:10:38.887Z,2.85
2022-08-22T04:13:28.766Z,2.50
2022-08-22T04:16:20.748Z,2.55
2022-08-22T04:19:05.709Z,2.67
2022-08-22T04:22:15.656Z,3.08
2022-08-22T04:24:57.432Z,2.60
2022-08-22T04:27:30.251Z,2.63
2022-08-22T04:30:03.807Z,2.70
2022-08-22T04:32:39.356Z,4.28
2022-08-22T04:35:11.993Z,3.58
2022-08-22T04:37:46.265Z,3.70
2022-08-22T04:40:23.294Z,3.35
2022-08-22T04:42:55.510Z,2.72
2022-08-22T04:45:29.637Z,2.67
2022-08-22T04:48:05.198Z,2.90
2022-08-22T04:53:23.273Z,3.10
2022-08-22T04:56:03.010Z,2.60
2022-08-22T04:58:44.915Z,3.10
2022-08-22T05:01:18.086Z,2.85
2022-08-22T05:03:53.833Z,3.10
2022-08-22T05:06:26.401Z,3.15
2022-08-22T05:08:56.976Z,2.95
2022-08-22T05:11:25.525Z,2.45
2022-08-22T05:13:57.733Z,2.88
2022-08-22T05:16:29.817Z,2.70
2022-08-22T05:19:03.865Z,2.70
2022-08-22T05:21:35.201Z,2.50
2022-08-22T05:24:09.492Z,2.50
2022-08-22T05:26:41.550Z,2.85
2022-08-22T05:29:12.048Z,2.78
2022-08-22T05:31:42.901Z,2.78
2022-08-22T05:34:16.261Z,2.83
2022-08-22T05:36:49.384Z,2.60
2022-08-22T05:39:20.704Z,2.72
2022-08-22T05:41:50.693Z,2.28
2022-08-22T05:44:22.421Z,2.38
2022-08-22T05:46:57.281Z,3.05
2022-08-22T05:49:34.679Z,2.90
2022-08-22T05:52:10.693Z,2.70
2022-08-22T05:54:51.195Z,2.70
2022-08-22T05:57:28.803Z,2.60
2022-08-22T06:00:04.017Z,3.20
2022-08-22T06:02:50.967Z,3.30
2022-08-22T06:05:27.263Z,3.38
2022-08-22T06:08:02.086Z,3.00
2022-08-22T06:10:40.013Z,3.00
2022-08-22T06:13:12.798Z,3.45
2022-08-22T06:15:46.324Z,2.95
2022-08-22T06:20:50.487Z,2.80
2022-08-22T06:23:26.199Z,2.90
2022-08-22T06:25:56.747Z,2.60
2022-08-22T06:28:27.015Z,3.10
2022-08-22T06:30:58.081Z,2.75
2022-08-22T06:33:29.289Z,2.17
2022-08-22T06:36:20.580Z,2.05
2022-08-22T06:39:05.479Z,2.33
2022-08-22T06:41:37.024Z,2.17
2022-08-22T06:44:08.135Z,2.08
2022-08-22T06:46:39.400Z,2.33
2022-08-22T06:49:09.849Z,2.47
2022-08-22T06:51:40.354Z,2.55
2022-08-22T06:54:16.177Z,2.20
2022-08-22T06:56:47.559Z,2.63
2022-08-22T06:59:18.132Z,2.53
2022-08-22T07:01:52.039Z,2.25
2022-08-22T07:04:26.417Z,2.17
2022-08-22T07:06:58.121Z,2.55
2022-08-22T07:09:29.133Z,2.10
2022-08-22T07:12:01.889Z,2.10
2022-08-22T07:14:34.477Z,2.38
2022-08-22T07:17:05.492Z,2.92
2022-08-22T07:19:36.900Z,3.05
2022-08-22T07:22:15.568Z,2.90
2022-08-22T07:24:49.219Z,2.22
2022-08-22T07:27:33.089Z,3.10
2022-08-22T07:30:06.696Z,3.10
2022-08-22T07:32:48.120Z,2.90
2022-08-22T07:35:19.124Z,2.35
2022-08-22T07:38:00.269Z,2.67
2022-08-22T07:40:35.450Z,2.58
2022-08-22T07:43:13.377Z,2.45
2022-08-22T07:45:48.497Z,2.38
2022-08-22T07:48:25.878Z,2.30
2022-08-22T07:51:01.533Z,2.17
2022-08-22T07:53:39.905Z,2.67
2022-08-22T07:56:10.761Z,2.20
2022-08-22T07:58:41.905Z,2.28
2022-08-22T08:01:12.485Z,2.10
2022-08-22T08:03:40.589Z,2.22
2022-08-22T08:06:10.456Z,1.75
2022-08-22T08:08:44.040Z,2.20
2022-08-22T08:11:15.967Z,1.83
2022-08-22T08:13:48.796Z,2.00
2022-08-22T08:16:19.948Z,2.05
2022-08-22T08:18:50.968Z,2.03
2022-08-22T08:21:38.476Z,1.92
2022-08-22T08:24:13.334Z,1.85
2022-08-22T08:27:05.333Z,1.80
2022-08-22T08:29:32.847Z,2.10
2022-08-22T08:32:02.270Z,1.95
2022-08-22T08:34:34.460Z,2.53
2022-08-22T08:37:12.776Z,2.43
2022-08-22T08:39:48.390Z,2.10
2022-08-22T08:43:14.203Z,2.33
2022-08-22T08:46:00.120Z,1.77
2022-08-22T08:49:06.414Z,1.67
2022-08-22T08:51:56.262Z,1.98
2022-08-22T08:54:49.994Z,1.40
2022-08-22T08:57:29.964Z,1.67
2022-08-22T09:00:07.439Z,1.70
2022-08-22T09:02:55.244Z,1.67
2022-08-22T09:05:52.711Z,1.60
2022-08-22T09:08:59.333Z,1.63
2022-08-22T09:12:11.365Z,1.70
2022-08-22T09:15:05.256Z,1.48
2022-08-22T09:18:13.368Z,1.42
2022-08-22T09:21:31.271Z,1.50
2022-08-22T09:24:59.193Z,1.40
2022-08-22T09:27:34.844Z,1.35
2022-08-22T09:30:11.656Z,1.40
2022-08-22T09:32:48.485Z,1.40
2022-08-22T09:35:27.742Z,1.50
2022-08-22T09:38:26.800Z,1.60
2022-08-22T09:41:05.245Z,1.73
2022-08-22T09:43:45.059Z,1.70
2022-08-22T09:46:29.450Z,1.60
2022-08-22T09:49:10.377Z,2.20
2022-08-22T09:54:31.418Z,1.52
2022-08-22T09:57:17.353Z,1.45
2022-08-22T10:00:03.366Z,2.00
2022-08-22T10:02:43.698Z,1.50
2022-08-22T10:05:35.238Z,1.60
2022-08-22T10:08:19.794Z,1.90
2022-08-22T10:11:11.268Z,1.60
2022-08-22T10:13:57.751Z,1.70
2022-08-22T10:16:50.153Z,1.70
2022-08-22T10:19:27.395Z,1.70
2022-08-22T10:22:20.504Z,1.90
2022-08-22T10:25:00.437Z,2.10
2022-08-22T10:27:44.986Z,1.60
2022-08-22T10:30:18.053Z,1.63
2022-08-22T10:32:54.142Z,1.50
2022-08-22T10:35:34.030Z,1.90
2022-08-22T10:38:10.713Z,1.50
2022-08-22T10:40:44.196Z,1.52
2022-08-22T10:43:29.194Z,1.60
2022-08-22T10:46:06.827Z,1.75
2022-08-22T10:48:59.514Z,1.60
2022-08-22T10:51:45.604Z,1.48
2022-08-22T10:54:38.451Z,1.75
2022-08-22T10:57:20.936Z,1.50
2022-08-22T10:59:58.483Z,1.70
2022-08-22T11:02:44.904Z,1.80
2022-08-22T11:05:40.748Z,1.42
2022-08-22T11:08:34.937Z,1.63
2022-08-22T11:11:10.070Z,1.98
2022-08-22T11:13:46.210Z,1.63
2022-08-22T11:16:28.791Z,1.60
2022-08-22T11:19:28.506Z,1.70
2022-08-22T11:22:07.325Z,1.75
2022-08-22T11:25:11.235Z,1.60
2022-08-22T11:27:49.138Z,1.80
2022-08-22T11:30:21.864Z,1.88
2022-08-22T11:33:18.017Z,1.90
2022-08-22T11:35:55.934Z,1.52
2022-08-22T11:38:36.162Z,1.88
2022-08-22T11:41:13.118Z,1.75
2022-08-22T11:43:54.387Z,1.85
2022-08-22T11:46:30.362Z,1.55
2022-08-22T11:49:09.425Z,1.58
2022-08-22T11:51:59.499Z,1.77
2022-08-22T11:54:42.185Z,1.90
2022-08-22T11:57:14.937Z,1.83
2022-08-22T12:00:02.754Z,1.85
2022-08-22T12:02:45.221Z,2.20
2022-08-22T12:05:24.635Z,1.65
2022-08-22T12:07:58.025Z,2.00
2022-08-22T12:10:31.319Z,1.85
2022-08-22T12:13:07.923Z,2.10
2022-08-22T12:15:43.568Z,1.85
2022-08-22T12:18:45.352Z,1.90
2022-08-22T12:21:38.688Z,1.90
2022-08-22T12:24:37.122Z,1.95
2022-08-22T12:27:32.973Z,2.08
2022-08-22T12:30:19.267Z,2.00
2022-08-22T12:33:25.727Z,1.95
2022-08-22T12:36:09.586Z,1.90
2022-08-22T12:38:59.037Z,1.80
2022-08-22T12:41:46.742Z,1.83
2022-08-22T12:44:37.649Z,1.73
2022-08-22T12:47:28.856Z,1.90
2022-08-22T12:50:25.992Z,1.70
2022-08-22T12:53:23.200Z,1.52
2022-08-22T12:56:05.967Z,1.80
2022-08-22T12:59:01.380Z,2.50
2022-08-22T13:01:40.197Z,1.75
2022-08-22T13:04:32.497Z,1.77
2022-08-22T13:07:17.362Z,1.90
2022-08-22T13:09:50.281Z,1.90
2022-08-22T13:12:25.984Z,2.90
2022-08-22T13:15:00.780Z,1.88
2022-08-22T13:17:29.647Z,1.98
2022-08-22T13:20:04.629Z,1.95
2022-08-22T13:22:36.477Z,1.83
2022-08-22T13:25:15.566Z,2.20
2022-08-22T13:27:56.136Z,2.03
2022-08-22T13:30:31.660Z,2.20
2022-08-22T13:33:08.581Z,2.08
2022-08-22T13:35:44.643Z,6.15
2022-08-22T13:38:25.850Z,2.00
2022-08-22T13:40:56.830Z,1.98
2022-08-22T13:43:29.705Z,2.03
2022-08-22T13:46:01.724Z,2.20
2022-08-22T13:48:46.799Z,2.20
2022-08-22T13:51:24.642Z,2.35
2022-08-22T13:54:02.187Z,2.10
2022-08-22T13:56:36.722Z,2.00
2022-08-22T13:59:08.270Z,2.00
2022-08-22T14:01:50.312Z,2.05
2022-08-22T14:04:32.146Z,1.65
2022-08-22T14:07:28.269Z,2.00
2022-08-22T14:09:59.263Z,1.92
2022-08-22T14:12:33.918Z,2.40
2022-08-22T14:15:24.119Z,2.88
2022-08-22T14:18:03.366Z,1.98
2022-08-22T14:20:33.712Z,1.80
2022-08-22T14:23:08.722Z,1.80
2022-08-22T14:25:39.923Z,1.90
2022-08-22T14:28:10.299Z,2.03
2022-08-22T14:30:59.501Z,1.70
2022-08-22T14:33:35.366Z,2.00
2022-08-22T14:38:40.421Z,1.95
2022-08-22T14:41:26.260Z,1.92
2022-08-22T14:43:58.533Z,1.77
2022-08-22T14:46:31.543Z,1.80
2022-08-22T14:49:26.883Z,1.80
2022-08-22T14:52:02.876Z,2.03
2022-08-22T14:54:33.685Z,1.92
2022-08-22T14:57:10.375Z,2.10
2022-08-22T14:59:46.571Z,2.00
2022-08-22T15:02:27.641Z,2.22
2022-08-22T15:04:57.094Z,2.20
2022-08-22T15:07:29.428Z,1.95
2022-08-22T15:10:03.828Z,2.20
2022-08-22T15:12:37.758Z,2.00
2022-08-22T15:15:11.304Z,2.17
2022-08-22T15:17:44.570Z,1.92
2022-08-22T15:20:27.871Z,2.22
2022-08-22T15:22:59.833Z,2.20
2022-08-22T15:25:33.305Z,1.90
2022-08-22T15:28:05.759Z,1.92
2022-08-22T15:30:38.634Z,2.00
2022-08-22T15:33:19.038Z,2.05
2022-08-22T15:35:48.872Z,2.05
2022-08-22T15:38:32.527Z,2.13
2022-08-22T15:41:36.011Z,2.20
2022-08-22T15:44:14.804Z,3.40
2022-08-22T15:49:31.289Z,1.83
2022-08-22T15:52:15.241Z,2.00
2022-08-22T15:57:38.854Z,2.08
2022-08-22T16:00:28.002Z,2.17
2022-08-22T16:03:01.751Z,2.20
2022-08-22T16:05:45.612Z,2.28
2022-08-22T16:08:16.974Z,2.10
2022-08-22T16:10:48.640Z,2.30
2022-08-22T16:13:40.812Z,2.15
2022-08-22T16:16:13.748Z,2.10
2022-08-22T16:19:15.281Z,3.40
2022-08-22T16:22:06.646Z,2.50
2022-08-22T16:25:14.215Z,2.60
2022-08-22T16:27:56.591Z,2.55
2022-08-22T16:30:35.477Z,2.22
2022-08-22T16:33:04.499Z,2.25
2022-08-22T16:36:23.722Z,2.35
2022-08-22T16:38:55.829Z,1.98
2022-08-22T16:41:29.199Z,2.05
2022-08-22T16:44:41.451Z,2.50
2022-08-22T16:47:16.045Z,3.33
2022-08-22T16:52:53.158Z,2.10
2022-08-22T16:55:48.933Z,2.30
2022-08-22T16:59:03.323Z,2.17
2022-08-22T17:02:16.907Z,2.47
2022-08-22T17:04:54.493Z,2.08
2022-08-22T17:07:34.351Z,2.50
2022-08-22T17:10:27.720Z,2.20
2022-08-22T17:13:10.517Z,2.30
2022-08-22T17:15:58.407Z,2.20
2022-08-22T17:18:45.613Z,2.30
2022-08-22T17:21:25.440Z,1.80
2022-08-22T17:24:01.327Z,2.00
2022-08-22T17:26:41.899Z,2.10
2022-08-22T17:29:18.107Z,2.30
2022-08-22T17:31:54.385Z,2.00
2022-08-22T17:34:34.503Z,2.00
2022-08-22T17:37:10.696Z,2.10
2022-08-22T17:39:57.221Z,1.90
2022-08-22T17:42:53.465Z,2.22
2022-08-22T17:45:33.786Z,1.90
2022-08-22T17:48:16.853Z,2.20
2022-08-22T17:50:50.189Z,1.95
2022-08-22T17:53:30.983Z,2.30
2022-08-22T17:56:06.628Z,2.10
2022-08-22T17:58:43.849Z,2.00
2022-08-22T18:01:19.701Z,2.10
2022-08-22T18:03:58.566Z,1.95
2022-08-22T18:06:33.849Z,2.10
2022-08-22T18:09:13.955Z,2.05
2022-08-22T18:11:48.229Z,1.85
2022-08-22T18:14:28.564Z,2.28
2022-08-22T18:16:59.061Z,2.03
2022-08-22T18:19:40.999Z,2.40
2022-08-22T18:22:20.305Z,2.05
2022-08-22T18:24:54.497Z,2.20
2022-08-22T18:27:35.413Z,2.20
2022-08-22T18:30:15.457Z,2.50
2022-08-22T18:32:52.580Z,2.30
2022-08-22T18:35:26.228Z,2.42
2022-08-22T18:38:18.260Z,3.65
2022-08-22T18:40:53.374Z,2.67
2022-08-22T18:43:26.900Z,2.58
2022-08-22T18:46:03.287Z,2.05
2022-08-22T18:48:54.417Z,2.40
2022-08-22T18:51:30.911Z,2.65
2022-08-22T18:54:26.756Z,2.47
2022-08-22T18:57:01.204Z,2.28
2022-08-22T18:59:45.910Z,2.60
2022-08-22T19:02:50.652Z,2.40
2022-08-22T19:05:44.764Z,2.30
2022-08-22T19:08:27.629Z,2.20
2022-08-22T19:11:10.153Z,2.30
2022-08-22T19:14:08.869Z,2.22
2022-08-22T19:17:02.631Z,2.30
2022-08-22T19:20:02.374Z,2.17
2022-08-22T19:22:34.126Z,2.45
2022-08-22T19:25:12.015Z,2.42
2022-08-22T19:27:44.610Z,2.30
2022-08-22T19:30:43.042Z,2.15
2022-08-22T19:33:12.132Z,2.13
2022-08-22T19:36:07.010Z,2.30
2022-08-22T19:39:00.256Z,2.42
2022-08-22T19:41:47.341Z,2.40
2022-08-22T19:44:35.818Z,2.15
2022-08-22T19:47:11.301Z,2.15
2022-08-22T19:49:43.963Z,2.33
2022-08-22T19:52:27.679Z,2.10
2022-08-22T19:55:02.972Z,2.47
2022-08-22T19:57:43.059Z,2.42
2022-08-22T20:00:15.116Z,2.35
2022-08-22T20:02:58.981Z,2.15
2022-08-22T20:05:33.900Z,2.50
2022-08-22T20:08:25.477Z,2.30
2022-08-22T20:11:05.163Z,2.28
2022-08-22T20:13:35.630Z,2.20
2022-08-22T20:16:13.419Z,2.33
2022-08-22T20:19:14.905Z,2.55
2022-08-22T20:21:52.792Z,2.63
2022-08-22T20:24:27.135Z,2.38
2022-08-22T20:27:13.249Z,2.60
2022-08-22T20:29:49.075Z,2.85
2022-08-22T20:32:22.999Z,2.50
2022-08-22T20:34:56.907Z,2.75
2022-08-22T20:37:50.719Z,2.30
2022-08-22T20:40:56.990Z,2.30
2022-08-22T20:43:24.520Z,2.40
2022-08-22T20:46:05.540Z,2.58
2022-08-22T20:48:39.253Z,2.45
2022-08-22T20:51:09.989Z,2.53
2022-08-22T20:53:38.094Z,2.60
2022-08-22T20:56:08.221Z,2.85
2022-08-22T20:58:39.938Z,2.53
2022-08-22T21:01:12.560Z,2.60
2022-08-22T21:03:47.168Z,2.65
2022-08-22T21:06:17.672Z,3.03
2022-08-22T21:08:47.421Z,2.63
2022-08-22T21:11:39.820Z,2.95
2022-08-22T21:14:20.801Z,2.72
2022-08-22T21:16:49.677Z,2.83
2022-08-22T21:19:20.967Z,3.13
2022-08-22T21:21:48.863Z,2.85
2022-08-22T21:24:17.195Z,2.90
2022-08-22T21:26:50.078Z,2.72
2022-08-22T21:29:27.035Z,2.92
2022-08-22T21:32:12.065Z,2.40
2022-08-22T21:34:46.679Z,2.83
2022-08-22T21:37:16.959Z,2.60
2022-08-22T21:39:48.706Z,2.83
2022-08-22T21:42:26.377Z,2.58
2022-08-22T21:44:59.051Z,2.80
2022-08-22T21:47:31.647Z,2.67
2022-08-22T21:50:10.317Z,2.88
2022-08-22T21:52:39.831Z,2.50
2022-08-22T21:55:25.535Z,3.38
2022-08-22T21:58:04.939Z,2.92
2022-08-22T22:00:50.981Z,2.83
2022-08-22T22:03:21.684Z,2.75
2022-08-22T22:05:52.794Z,2.58
2022-08-22T22:08:20.601Z,2.70
2022-08-22T22:10:49.987Z,3.00
2022-08-22T22:13:20.614Z,3.28
2022-08-22T22:15:53.707Z,2.93
2022-08-22T22:18:24.194Z,3.10
2022-08-22T22:20:55.143Z,2.95
2022-08-22T22:23:23.501Z,2.97
2022-08-22T22:25:52.312Z,2.95
2022-08-22T22:28:23.454Z,3.10
2022-08-22T22:30:53.298Z,2.95
2022-08-22T22:33:23.199Z,3.20
2022-08-22T22:35:54.061Z,2.80
2022-08-22T22:38:24.312Z,3.05
2022-08-22T22:40:52.538Z,3.15
2022-08-22T22:43:20.452Z,2.80
2022-08-22T22:45:48.298Z,2.90
2022-08-22T22:48:23.920Z,3.15
2022-08-22T22:50:54.070Z,2.95
2022-08-22T22:53:38.178Z,2.90
2022-08-22T22:56:09.130Z,2.95
2022-08-22T22:58:37.572Z,3.10
2022-08-22T23:01:09.206Z,3.05
2022-08-22T23:03:37.089Z,3.15
2022-08-22T23:06:11.030Z,3.33
2022-08-22T23:08:38.855Z,3.50
2022-08-22T23:11:10.558Z,3.10
2022-08-22T23:13:39.743Z,2.78
2022-08-22T23:16:12.928Z,3.10
2022-08-22T23:18:40.796Z,3.00
2022-08-22T23:21:15.270Z,3.30
2022-08-22T23:23:43.580Z,3.00
2022-08-22T23:26:12.289Z,3.08
2022-08-22T23:28:40.508Z,3.20
2022-08-22T23:31:14.501Z,3.15
2022-08-22T23:33:42.372Z,3.45
2022-08-22T23:36:14.186Z,3.90
2022-08-22T23:38:42.093Z,3.55
2022-08-22T23:41:11.072Z,3.60
2022-08-22T23:43:42.929Z,3.97
2022-08-22T23:46:11.213Z,3.90
2022-08-22T23:48:39.051Z,3.63
2022-08-22T23:51:07.541Z,3.65
2022-08-22T23:53:37.661Z,3.90
2022-08-22T23:56:19.400Z,3.80
2022-08-22T23:58:49.139Z,3.70
